Shishmaref Airport Shishmaref US
ICAO: PASH
IATA:
Category: Medium
Scheduled Services:

Elevation: 12 ft
TransAlt. 18000 ft.

Airport Communications:
AWOS 3:121.1
ANCHORAGE CNTR:119.2
CTAF:123
NOME RDO:122.4
TWEB:36.5

PASH Zoom In..

If you have problems with the map follow the link
https://www.worldairports.se/pages/airport.php?
ICAO=PASH

Runways:

(A) RW 05 length 4997 ft width 73 ft
---- / hdg 49

(B) RW 23 length 4997 ft width 73 ft
---- / hdg 229

Location; PASH
Day. 22 / Time. 21.56 Zulu
* Altimeter: 29.91
* Temperature: 00° c. 32°f.
* Wind from: 090° Speed 05 kn.
Dewpoint: -03° c.
Visibility: 9 Statute Miles.
Clouds: Overcast 3900 ft.

PASH 222156Z AUTO 09005KT 9SM OVC039 00/M03 A2991 RMK AO2 SLP129 T00001028 FZRANO


Wind From 090°
Speed 05 kn.

 
 
jpsmedia worldairports.se 2019   terms of use